Pagina principale
METAR-TAF:

METAR-TAF

Aeroporti :

Castres, Francia

latitudine: 43-33-25N, longitudine: 2-17-21E, altezza: 239 m

Osservazione

Il bollettino è stato emesso 38 minuti fa, alle 22:00 UTC
Vento 17 kt da est/sud-est
Temperature 18°C
Umidità 77%
Pressione 1017 hPa
Visibilità 10 km o più
nessuna nube inferiore a 1500 m e nessun cumulonembo

METAR: LFCK 292200Z AUTO 12017KT CAVOK 18/14 Q1017

Ora: 00:38 (22:38 UTC)

Previsione

Il bollettino è stato emesso 5 ore e 38 minuti fa, alle 17:00 UTC
Previsione valida dal 29 alle 18 UTC al 30 alle 03 UTC
Vento 8 kt da est/sud-est
Visibilità 10 km o più
nessuna nube inferiore a 1500 m e nessun cumulonembo
Evoluzione graduale
dal 29 alle 18 UTC al 29 alle 20 UTC
Vento 18 kt da est/sud-est con raffiche fino a 28 kt

TAF: LFCK 291700Z 2918/3003 12008KT CAVOK BECMG 2918/2920 12018G28KT

Osservazioni e previsioni meteorologiche di più di 4000 aeroporti (messaggi METAR e TAF).

Le stazioni disponibili sono rappresentate dai dischi gialli e rossi sulla carta.

Puntare il mouse per vedere il nome della stazione.

Clicca sopra per visualizzare le osservazioni e previsioni meteorologiche.

Per cambiare la mappa : fare clic sui pulsanti verdi con una croce nera per ingrandire, il pulsante verde con un trattino per diminuire, o sulla freccia verde per le mappe adiacenti.


METAR-TAF: